Time;durP1;ratioP1;P1;durP2;ratioP2;P2;SDS_P1;SDS_P2;PMS_P1;PMS_P2;Temp;Humidity;BMP_temperature;BMP_pressure;BME280_temperature;BME280_humidity;BME280_pressure;Samples;Min_cycle;Max_cycle;Signal;HPM_P1;HPM_P2
2023/10/06 00:03:05;;;;;;;9.07;2.60;;;;;;;11.76;80.80;98467.75;5071530;28;20040;-40
2023/10/06 00:05:33;;;;;;;9.10;2.67;;;;;;;11.78;80.58;98459.81;5104527;28;20056;-41
2023/10/06 00:07:59;;;;;;;10.85;2.97;;;;;;;11.77;80.21;98456.41;5089076;28;20044;-40
2023/10/06 00:10:28;;;;;;;8.73;2.42;;;;;;;11.81;79.98;98449.25;5076389;28;20081;-40
2023/10/06 00:12:58;;;;;;;6.17;2.53;;;;;;;11.81;79.64;98444.03;5068291;28;20048;-40
2023/10/06 00:15:40;;;;;;;7.53;2.80;;;;;;;11.65;79.74;98420.63;5067477;28;20064;-39
2023/10/06 00:18:16;;;;;;;9.40;2.95;;;;;;;11.46;79.85;98397.44;5097927;28;20052;-39
2023/10/06 00:20:49;;;;;;;6.28;2.40;;;;;;;11.79;79.58;98440.66;5087722;28;20511;-40
2023/10/06 00:23:21;;;;;;;5.05;2.53;;;;;;;11.74;79.62;98434.91;5075854;28;20427;-40
2023/10/06 00:25:51;;;;;;;6.07;2.40;;;;;;;11.78;79.99;98428.56;5077927;28;20040;-40
2023/10/06 00:28:19;;;;;;;4.93;2.75;;;;;;;11.59;79.77;98388.91;5080266;28;20696;-40
2023/10/06 00:30:56;;;;;;;8.02;2.90;;;;;;;11.64;79.46;98386.88;5073008;28;20516;-40
2023/10/06 00:33:32;;;;;;;5.93;2.97;;;;;;;11.79;79.86;98415.47;5071905;28;20040;-39
2023/10/06 00:36:17;;;;;;;4.97;2.42;;;;;;;11.78;80.04;98415.56;5051138;28;20028;-39
2023/10/06 00:38:51;;;;;;;11.43;3.38;;;;;;;11.62;79.92;98378.34;5067322;28;20048;-40
2023/10/06 00:41:19;;;;;;;7.30;3.20;;;;;;;11.63;79.57;98382.59;5078485;28;20066;-40
2023/10/06 00:43:46;;;;;;;9.90;3.08;;;;;;;11.81;80.08;98410.19;5080046;28;20050;-40
2023/10/06 00:46:13;;;;;;;7.95;2.80;;;;;;;11.84;79.93;98403.03;5085315;28;20147;-40
2023/10/06 00:48:44;;;;;;;7.00;2.60;;;;;;;11.84;80.22;98396.97;5063586;28;20071;-40
2023/10/06 00:51:13;;;;;;;6.88;2.60;;;;;;;11.83;79.88;98392.69;5085159;28;20036;-40
2023/10/06 00:53:40;;;;;;;10.40;3.03;;;;;;;11.78;80.65;98387.75;5077646;28;20043;-40
2023/10/06 00:56:15;;;;;;;6.78;2.88;;;;;;;11.57;81.06;98357.75;5081490;28;20044;-39
2023/10/06 00:58:42;;;;;;;6.70;2.63;;;;;;;11.76;81.53;98387.03;5070265;28;20055;-39
2023/10/06 01:01:13;;;;;;;6.75;2.95;;;;;;;11.73;81.24;98384.59;5067229;28;20052;-40
2023/10/06 01:03:42;;;;;;;9.13;2.58;;;;;;;11.69;81.81;98377.88;5085430;28;20093;-40
2023/10/06 01:06:14;;;;;;;5.75;2.40;;;;;;;11.68;81.55;98373.59;5074132;28;20060;-40
2023/10/06 01:08:45;;;;;;;8.25;2.65;;;;;;;11.46;82.35;98327.16;5075631;28;20055;-40
2023/10/06 01:11:13;;;;;;;6.30;2.67;;;;;;;11.63;82.90;98356.56;5050385;28;20056;-41
2023/10/06 01:13:54;;;;;;;9.73;2.55;;;;;;;11.60;82.92;98352.41;5049759;28;20067;-40
2023/10/06 01:16:31;;;;;;;6.93;2.72;;;;;;;11.59;83.44;98342.91;5059889;28;20064;-41
2023/10/06 01:19:47;;;;;;;6.47;2.83;;;;;;;11.57;83.52;98352.56;5066093;28;20052;-39
2023/10/06 01:21:48;;;;;;;6.50;2.65;;;;;;;11.51;84.21;98347.75;5064870;28;20041;-40
2023/10/06 01:24:23;;;;;;;11.23;3.65;;;;;;;11.32;84.67;98306.34;5068175;28;20078;-40
2023/10/06 01:26:50;;;;;;;5.93;2.78;;;;;;;11.48;84.47;98340.09;5073471;28;20035;-39
2023/10/06 01:29:15;;;;;;;8.68;2.88;;;;;;;11.08;84.78;98254.94;5082822;28;20048;-40
2023/10/06 01:31:42;;;;;;;12.30;3.38;;;;;;;11.55;85.07;98320.59;5086890;28;20059;-40
2023/10/06 01:34:08;;;;;;;8.50;3.22;;;;;;;11.56;85.09;98337.06;5067481;28;20090;-41
2023/10/06 01:36:38;;;;;;;7.07;3.00;;;;;;;11.31;84.82;98283.00;5082613;28;20508;-39
2023/10/06 01:39:05;;;;;;;7.40;3.10;;;;;;;11.21;84.99;98274.09;5066458;28;20047;-40
2023/10/06 01:41:37;;;;;;;9.15;3.35;;;;;;;11.41;85.38;98315.34;5075390;28;20028;-40
2023/10/06 01:44:10;;;;;;;8.57;3.50;;;;;;;11.12;85.83;98251.22;5086954;28;20050;-40
2023/10/06 01:46:40;;;;;;;9.32;3.17;;;;;;;11.42;86.12;98291.00;5086903;28;20028;-40
2023/10/06 01:49:10;;;;;;;9.05;3.38;;;;;;;11.41;86.88;98302.34;5069141;28;20506;-40
2023/10/06 01:51:38;;;;;;;10.63;3.17;;;;;;;11.38;87.11;98294.75;5069572;28;20040;-40
2023/10/06 01:54:12;;;;;;;8.63;3.42;;;;;;;11.23;88.18;98290.44;5082302;28;20493;-39
2023/10/06 01:56:42;;;;;;;11.82;3.80;;;;;;;10.76;88.53;98236.03;5073994;28;20089;-42
2023/10/06 01:59:12;;;;;;;12.18;3.75;;;;;;;11.05;90.09;98292.34;5070516;28;20056;-40
2023/10/06 02:01:39;;;;;;;8.23;3.60;;;;;;;10.93;91.56;98280.94;5069877;28;20119;-38
2023/10/06 02:04:14;;;;;;;9.13;3.00;;;;;;;10.88;93.12;98282.13;5086964;28;20512;-39
2023/10/06 02:06:59;;;;;;;7.50;3.72;;;;;;;10.80;93.62;98271.31;5076392;28;20069;-40
2023/10/06 02:09:25;;;;;;;10.43;3.55;;;;;;;10.74;94.35;98266.47;5089940;28;20070;-40
2023/10/06 02:11:53;;;;;;;9.43;3.63;;;;;;;10.54;95.25;98233.81;5085985;28;20490;-39
2023/10/06 02:14:20;;;;;;;11.18;3.70;;;;;;;10.63;97.00;98265.31;5069745;28;20094;-40
2023/10/06 02:16:48;;;;;;;8.25;3.70;;;;;;;10.30;97.64;98223.09;5059568;28;20543;-39
2023/10/06 02:19:17;;;;;;;7.72;3.42;;;;;;;10.58;98.85;98266.50;5098400;28;20039;-39
2023/10/06 02:21:45;;;;;;;9.80;3.30;;;;;;;10.51;99.22;98275.59;5092323;28;20044;-39
2023/10/06 02:24:12;;;;;;;11.18;4.15;;;;;;;10.11;99.54;98193.81;5086643;28;20028;-40
2023/10/06 02:26:39;;;;;;;10.70;3.88;;;;;;;10.48;99.75;98263.59;5075112;28;20079;-40
2023/10/06 02:29:24;;;;;;;9.20;3.97;;;;;;;10.44;100.00;98240.47;5088658;28;20048;-40
2023/10/06 02:31:50;;;;;;;9.20;3.95;;;;;;;10.49;100.00;98241.03;5072605;28;20043;-40
2023/10/06 02:34:29;;;;;;;8.18;3.90;;;;;;;10.52;100.00;98244.28;5074597;28;20036;-40
2023/10/06 02:36:56;;;;;;;10.57;3.95;;;;;;;10.63;100.00;98241.09;5069529;28;20078;-40
2023/10/06 02:39:26;;;;;;;12.57;4.35;;;;;;;10.61;100.00;98240.34;5055955;28;20062;-40
2023/10/06 02:41:57;;;;;;;11.50;4.20;;;;;;;10.42;100.00;98208.53;5089309;28;20051;-44
2023/10/06 02:44:29;;;;;;;10.73;4.50;;;;;;;10.39;100.00;98188.78;5090670;28;20042;-39
2023/10/06 02:46:55;;;;;;;10.15;4.28;;;;;;;10.69;100.00;98221.69;5067945;28;20084;-39
2023/10/06 02:49:31;;;;;;;8.95;3.83;;;;;;;10.55;100.00;98192.16;5071860;28;20036;-40
2023/10/06 02:52:00;;;;;;;9.43;4.15;;;;;;;10.72;100.00;98224.97;5089158;28;20105;-39
2023/10/06 02:54:29;;;;;;;11.68;4.88;;;;;;;10.68;100.00;98215.66;5074309;28;20483;-40
2023/10/06 02:56:55;;;;;;;9.70;4.45;;;;;;;10.70;100.00;98219.03;5070172;28;20039;-40
2023/10/06 02:59:25;;;;;;;9.80;4.25;;;;;;;10.69;100.00;98213.91;5069469;28;20138;-40
2023/10/06 03:02:00;;;;;;;9.30;4.10;;;;;;;10.71;100.00;98217.25;5072597;28;20044;-41
2023/10/06 03:04:27;;;;;;;9.55;4.22;;;;;;;10.72;100.00;98217.19;5069566;28;20120;-39
2023/10/06 03:06:58;;;;;;;11.55;4.18;;;;;;;10.72;100.00;98201.59;5090640;28;20139;-39
2023/10/06 03:10:08;;;;;;;11.38;4.47;;;;;;;10.74;100.00;98217.91;5088899;28;20100;-42
2023/10/06 03:14:58;;;;;;;12.23;4.85;;;;;;;10.69;100.00;98203.50;5079410;28;20044;-39
2023/10/06 03:17:24;;;;;;;11.10;4.03;;;;;;;10.68;100.00;98194.06;5074113;28;20043;-40
2023/10/06 03:20:10;;;;;;;7.75;4.15;;;;;;;10.56;100.00;98196.44;5085687;28;20036;-42
2023/10/06 03:22:40;;;;;;;9.07;3.58;;;;;;;10.48;100.00;98184.81;5088228;28;20075;-39
2023/10/06 03:25:19;;;;;;;12.82;4.25;;;;;;;10.48;100.00;98190.00;5088105;28;20542;-40
2023/10/06 03:27:53;;;;;;;17.38;5.18;;;;;;;10.47;100.00;98180.53;5088631;28;20123;-40
2023/10/06 03:30:34;;;;;;;17.33;6.20;;;;;;;10.19;100.00;98124.16;5088836;28;20167;-41
2023/10/06 03:33:03;;;;;;;7.95;4.35;;;;;;;10.54;100.00;98164.50;5084754;28;20108;-39
2023/10/06 03:35:54;;;;;;;9.48;3.92;;;;;;;10.46;100.00;98142.50;5050668;28;20502;-40
2023/10/06 03:43:14;;;;;;;13.57;4.60;;;;;;;10.60;100.00;98166.75;5084643;28;20041;-39
2023/10/06 03:45:42;;;;;;;;;;;;;;;10.66;100.00;98168.16;5085378;28;20044;-39
2023/10/06 03:48:08;;;;;;;12.43;3.85;;;;;;;10.52;100.00;98142.97;5101703;28;19915;-40
2023/10/06 03:50:43;;;;;;;7.72;3.88;;;;;;;10.68;100.00;98163.69;5073707;28;20593;-40
2023/10/06 03:53:12;;;;;;;9.93;4.03;;;;;;;10.71;100.00;98160.09;5068000;28;20734;-40
2023/10/06 03:55:45;;;;;;;12.53;4.23;;;;;;;10.74;100.00;98159.88;5070204;28;20045;-42
2023/10/06 03:58:14;;;;;;;9.85;3.83;;;;;;;10.76;100.00;98155.44;5108486;28;20048;-40
2023/10/06 04:00:47;;;;;;;11.10;4.10;;;;;;;10.87;100.00;98153.88;5098689;28;20043;-38
2023/10/06 04:03:17;;;;;;;7.72;4.40;;;;;;;10.92;100.00;98143.22;5091240;28;20051;-40
2023/10/06 04:05:50;;;;;;;10.45;3.92;;;;;;;10.95;100.00;98141.25;5104514;28;20101;-41
2023/10/06 04:08:23;;;;;;;10.50;4.22;;;;;;;10.99;100.00;98141.91;5086912;28;20043;-41
2023/10/06 04:10:57;;;;;;;7.85;4.03;;;;;;;11.05;99.55;98139.75;5072971;28;20036;-39
2023/10/06 04:13:26;;;;;;;7.43;3.85;;;;;;;11.09;99.27;98137.81;5093579;28;20516;-41
2023/10/06 04:15:52;;;;;;;5.25;2.70;;;;;;;11.15;98.66;98140.03;5073450;28;20042;-42
2023/10/06 04:18:24;;;;;;;10.13;4.60;;;;;;;11.19;98.45;98138.09;5061748;28;20353;-39
2023/10/06 04:20:52;;;;;;;6.85;4.00;;;;;;;11.23;97.78;98139.56;5067217;28;20075;-40
2023/10/06 04:23:19;;;;;;;9.10;3.78;;;;;;;11.34;97.55;98137.16;5084834;28;20131;-40
2023/10/06 04:25:46;;;;;;;8.50;4.03;;;;;;;11.34;97.25;98130.19;5068827;28;20101;-41
2023/10/06 04:28:16;;;;;;;10.43;4.20;;;;;;;11.35;97.00;98136.22;5073315;28;20135;-41
2023/10/06 04:30:44;;;;;;;7.82;4.03;;;;;;;11.39;96.38;98129.88;5081288;28;20042;-40
2023/10/06 04:33:13;;;;;;;7.13;3.67;;;;;;;11.35;95.44;98125.81;5088639;28;20054;-41
2023/10/06 04:35:55;;;;;;;10.60;4.45;;;;;;;11.34;95.21;98121.53;5079755;28;20043;-40
2023/10/06 04:38:22;;;;;;;13.90;4.35;;;;;;;11.30;94.65;98114.88;5052232;28;20044;-41
2023/10/06 04:40:49;;;;;;;10.50;3.88;;;;;;;11.34;94.34;98106.75;5096523;28;20023;-39
2023/10/06 04:43:17;;;;;;;13.60;5.00;;;;;;;11.34;94.00;98093.75;5067469;28;20040;-40
2023/10/06 04:45:44;;;;;;;13.57;4.55;;;;;;;11.55;93.62;98116.75;5051137;28;20040;-41
2023/10/06 04:48:12;;;;;;;8.20;4.53;;;;;;;11.61;93.57;98112.00;5095550;28;20047;-42
2023/10/06 04:50:38;;;;;;;8.43;3.70;;;;;;;11.66;92.84;98114.31;5103085;28;20395;-41
2023/10/06 04:53:07;;;;;;;11.55;4.05;;;;;;;11.65;92.09;98112.63;5107807;28;20028;-39
2023/10/06 04:55:37;;;;;;;8.13;4.17;;;;;;;11.68;91.68;98117.63;5088391;28;20117;-40
2023/10/06 04:58:13;;;;;;;7.15;3.50;;;;;;;11.68;90.94;98118.47;5108821;28;20292;-50
2023/10/06 05:00:40;;;;;;;7.97;3.53;;;;;;;11.51;90.18;98094.47;5107195;28;20043;-40
2023/10/06 05:03:09;;;;;;;10.60;3.60;;;;;;;11.66;89.86;98112.53;5069368;28;20091;-40
2023/10/06 05:05:40;;;;;;;7.10;3.60;;;;;;;11.47;89.42;98070.38;5080783;28;20075;-40
2023/10/06 05:08:09;;;;;;;8.10;3.25;;;;;;;11.68;88.23;98115.03;5108439;28;20042;-39
2023/10/06 05:10:37;;;;;;;4.53;2.58;;;;;;;11.50;87.93;98083.22;5107060;28;20119;-41
2023/10/06 05:13:06;;;;;;;6.47;3.70;;;;;;;11.72;87.93;98106.13;5102967;28;20447;-40
2023/10/06 05:15:34;;;;;;;9.05;3.85;;;;;;;11.79;87.42;98104.78;5050262;28;20048;-41
2023/10/06 05:18:03;;;;;;;7.13;3.30;;;;;;;11.78;87.06;98103.13;5067865;28;20036;-40
2023/10/06 05:20:33;;;;;;;9.32;3.75;;;;;;;11.76;86.35;98092.81;5076729;28;20482;-40
2023/10/06 05:23:07;;;;;;;4.22;2.22;;;;;;;11.81;86.24;98100.34;5072148;28;20044;-39
2023/10/06 05:25:34;;;;;;;8.95;3.72;;;;;;;11.72;85.78;98096.50;5079257;28;20113;-41
2023/10/06 05:28:00;;;;;;;6.97;3.70;;;;;;;11.82;85.48;98092.44;5089713;28;20036;-42
2023/10/06 05:30:28;;;;;;;10.00;3.67;;;;;;;12.28;84.45;98095.47;5071518;28;20036;-41
2023/10/06 05:32:58;;;;;;;6.72;2.92;;;;;;;12.31;81.81;98052.72;5104605;28;20072;-40
2023/10/06 05:35:29;;;;;;;6.68;3.35;;;;;;;12.78;80.84;98087.75;5086667;28;20039;-40
2023/10/06 05:37:55;;;;;;;7.68;3.05;;;;;;;13.21;79.36;98052.53;5112345;28;20135;-40
2023/10/06 05:40:21;;;;;;;9.75;3.42;;;;;;;13.99;76.50;98087.72;5109159;28;20465;-40
2023/10/06 05:42:49;;;;;;;5.40;2.67;;;;;;;14.11;73.47;98079.94;5109727;28;20040;-40
2023/10/06 05:45:19;;;;;;;7.57;3.28;;;;;;;14.30;73.04;98075.81;5089873;28;20503;-41
2023/10/06 05:47:46;;;;;;;7.47;3.13;;;;;;;14.81;71.94;98078.91;5094214;28;20138;-41
2023/10/06 05:50:27;;;;;;;7.28;3.60;;;;;;;15.80;69.77;98078.09;5068230;28;20129;-42
2023/10/06 05:53:08;;;;;;;9.93;4.03;;;;;;;15.72;67.42;98077.88;5071540;28;20423;-40
2023/10/06 05:55:35;;;;;;;6.00;2.72;;;;;;;14.91;66.82;98079.06;5099438;28;20564;-42
2023/10/06 05:58:09;;;;;;;5.60;2.58;;;;;;;14.34;68.08;98074.66;5106221;28;20040;-41
2023/10/06 06:00:43;;;;;;;5.13;2.63;;;;;;;13.43;69.03;98018.75;5103489;28;20081;-39
2023/10/06 06:03:13;;;;;;;5.75;2.80;;;;;;;13.48;70.43;98081.91;5084815;28;20050;-41
2023/10/06 06:05:41;;;;;;;7.97;3.22;;;;;;;13.43;70.92;98067.50;5108737;28;20060;-40
2023/10/06 06:08:10;;;;;;;8.37;2.80;;;;;;;13.22;71.24;98035.13;5110554;28;20039;-40
2023/10/06 06:10:37;;;;;;;6.78;2.50;;;;;;;13.26;71.19;98078.31;5106492;28;20044;-41
2023/10/06 06:13:03;;;;;;;8.48;2.97;;;;;;;12.91;71.42;98011.19;5093645;28;20039;-39
2023/10/06 06:15:29;;;;;;;6.78;2.83;;;;;;;13.35;70.61;98059.38;5104513;28;20094;-39
2023/10/06 06:17:58;;;;;;;8.27;3.13;;;;;;;13.31;70.63;98057.94;5091308;28;20174;-40
2023/10/06 06:20:25;;;;;;;5.22;1.95;;;;;;;13.26;70.53;98055.66;5093511;27;20059;-40
2023/10/06 06:22:58;;;;;;;9.52;2.60;;;;;;;13.12;70.90;98041.00;5098372;28;20130;-40
2023/10/06 06:25:26;;;;;;;6.15;3.15;;;;;;;12.82;70.99;98011.81;5110378;28;20051;-41
2023/10/06 06:27:54;;;;;;;12.57;3.10;;;;;;;13.07;71.28;98047.44;5065672;28;20064;-40
2023/10/06 06:30:21;;;;;;;9.15;2.72;;;;;;;12.93;71.67;98034.53;5084915;28;20131;-40
2023/10/06 06:32:52;;;;;;;4.13;2.30;;;;;;;12.73;72.24;98002.84;5079439;28;20048;-40
2023/10/06 06:35:23;;;;;;;6.88;2.83;;;;;;;12.94;72.26;98034.41;5108907;28;20031;-45
2023/10/06 06:37:59;;;;;;;13.75;3.05;;;;;;;12.96;72.33;98036.94;5110145;28;20035;-40
2023/10/06 06:40:26;;;;;;;6.75;3.03;;;;;;;12.98;72.58;98045.50;5111363;28;20043;-43
2023/10/06 06:42:52;;;;;;;7.95;2.80;;;;;;;12.92;72.71;98028.50;5105765;28;20518;-40
2023/10/06 06:45:19;;;;;;;7.15;2.90;;;;;;;12.95;73.14;98017.84;5070851;28;20037;-40
2023/10/06 06:47:46;;;;;;;7.38;3.35;;;;;;;12.80;73.44;97986.78;5087938;28;20044;-41
2023/10/06 06:50:17;;;;;;;11.50;4.10;;;;;;;12.97;74.08;98022.94;5068096;28;20086;-39
2023/10/06 06:52:44;;;;;;;5.97;2.95;;;;;;;12.99;74.44;98018.44;5070661;28;20045;-42
2023/10/06 06:55:13;;;;;;;7.38;3.08;;;;;;;13.01;74.57;98000.91;5053502;28;20041;-40
2023/10/06 06:57:44;;;;;;;6.63;3.20;;;;;;;13.20;74.42;98003.06;5077062;28;20071;-41
2023/10/06 07:00:17;;;;;;;6.03;2.95;;;;;;;13.02;74.52;97977.34;5071245;28;20032;-40
2023/10/06 07:02:50;;;;;;;7.10;3.30;;;;;;;13.06;75.38;98004.88;5082387;28;20041;-40
2023/10/06 07:05:18;;;;;;;6.50;3.30;;;;;;;12.80;77.49;98005.88;5070496;28;20742;-45
2023/10/06 07:07:45;;;;;;;6.28;3.65;;;;;;;12.68;79.34;98002.34;5057595;28;20046;-45
2023/10/06 07:10:14;;;;;;;10.13;3.97;;;;;;;12.44;79.65;97974.53;5083274;28;20055;-41
2023/10/06 07:12:44;;;;;;;7.72;3.72;;;;;;;12.61;79.81;98003.69;5068378;28;20052;-41
2023/10/06 07:15:17;;;;;;;9.43;3.63;;;;;;;12.61;79.94;98001.09;5068359;28;20048;-41
2023/10/06 07:17:48;;;;;;;6.75;2.88;;;;;;;12.68;79.40;97976.28;5069145;28;20048;-42
2023/10/06 07:20:18;;;;;;;7.45;3.55;;;;;;;12.85;78.77;97982.06;5068842;28;20044;-40
2023/10/06 07:22:48;;;;;;;8.00;3.00;;;;;;;12.94;77.68;97984.88;5069015;28;20032;-40
2023/10/06 07:25:15;;;;;;;5.53;3.30;;;;;;;12.96;76.72;97958.69;5068748;28;20036;-41
2023/10/06 07:27:47;;;;;;;4.35;2.42;;;;;;;13.17;75.82;97975.44;5082156;28;20038;-41
2023/10/06 07:30:22;;;;;;;7.47;3.20;;;;;;;13.09;75.07;97975.09;5089920;28;20036;-41
2023/10/06 07:32:48;;;;;;;4.40;2.67;;;;;;;12.98;75.01;97981.09;5088770;28;20040;-40
2023/10/06 07:35:17;;;;;;;9.32;3.45;;;;;;;12.99;75.30;97982.75;5069440;28;20544;-41
2023/10/06 07:37:49;;;;;;;10.27;3.45;;;;;;;12.91;75.26;97973.81;5092346;28;20052;-41
2023/10/06 07:40:21;;;;;;;5.75;2.70;;;;;;;12.83;75.71;97970.91;5088526;28;20039;-41
2023/10/06 07:42:51;;;;;;;8.05;3.33;;;;;;;12.90;75.43;97969.53;5089848;28;20576;-40
2023/10/06 07:45:18;;;;;;;6.10;2.40;;;;;;;12.96;75.29;97959.50;5088524;28;20100;-41
2023/10/06 07:47:45;;;;;;;6.07;2.55;;;;;;;13.01;74.81;97957.41;5095113;28;20537;-41
2023/10/06 07:50:13;;;;;;;6.25;2.80;;;;;;;13.19;74.15;97957.88;5067736;28;20118;-41
2023/10/06 07:52:41;;;;;;;3.72;2.42;;;;;;;13.34;73.37;97969.00;5084673;28;20049;-41
2023/10/06 07:55:09;;;;;;;7.60;2.97;;;;;;;13.29;73.19;97963.28;5069475;28;20048;-42
2023/10/06 07:57:45;;;;;;;6.55;2.92;;;;;;;13.28;72.60;97957.22;5068342;28;20126;-43
2023/10/06 08:00:18;;;;;;;6.13;2.80;;;;;;;13.26;72.23;97953.03;5067294;28;20044;-43
2023/10/06 08:02:45;;;;;;;10.82;3.17;;;;;;;13.14;72.23;97915.63;5081839;28;20040;-42
2023/10/06 08:05:13;;;;;;;7.35;2.42;;;;;;;13.44;72.45;97949.09;5084834;28;20060;-40
2023/10/06 08:07:42;;;;;;;6.57;3.00;;;;;;;13.60;71.74;97936.59;5067947;28;20043;-43
2023/10/06 08:10:15;;;;;;;6.00;3.10;;;;;;;13.65;71.51;97920.56;5069232;28;20051;-42
2023/10/06 08:12:44;;;;;;;7.65;2.80;;;;;;;13.94;70.47;97925.25;5068268;28;20040;-43
2023/10/06 08:15:25;;;;;;;5.28;2.70;;;;;;;14.24;69.50;97940.38;5068589;28;20040;-41
2023/10/06 08:17:55;;;;;;;6.90;2.90;;;;;;;14.34;68.90;97948.34;5067107;28;20082;-41
2023/10/06 08:20:24;;;;;;;5.82;2.33;;;;;;;14.24;68.51;97944.75;5051438;28;20565;-41
2023/10/06 08:22:51;;;;;;;5.85;2.78;;;;;;;13.94;69.33;97925.25;5084051;28;20048;-40
2023/10/06 08:25:19;;;;;;;7.85;2.85;;;;;;;13.85;69.23;97914.69;5068558;28;20040;-42
2023/10/06 08:27:47;;;;;;;3.60;1.95;;;;;;;13.93;69.83;97938.44;5070128;28;20186;-40
2023/10/06 08:30:17;;;;;;;5.55;2.47;;;;;;;13.75;70.56;97942.44;5067368;28;20043;-42
2023/10/06 08:32:45;;;;;;;6.10;2.47;;;;;;;13.59;71.54;97940.16;5068515;28;20411;-41
2023/10/06 08:35:15;;;;;;;5.40;2.33;;;;;;;13.47;72.43;97935.81;5066580;28;20043;-43
2023/10/06 08:37:42;;;;;;;3.97;2.00;;;;;;;13.27;73.94;97941.66;5066974;28;20040;-40
2023/10/06 08:40:16;;;;;;;3.97;2.15;;;;;;;12.79;79.02;97939.00;5068439;28;20039;-42
2023/10/06 08:42:56;;;;;;;4.43;2.63;;;;;;;12.41;82.23;97920.00;5068365;28;20170;-41
2023/10/06 08:45:27;;;;;;;9.35;2.78;;;;;;;12.43;83.73;97941.59;5068541;28;20040;-41
2023/10/06 08:47:58;;;;;;;6.18;3.05;;;;;;;12.31;84.51;97938.06;5084167;28;20151;-41
2023/10/06 08:50:29;;;;;;;9.07;3.08;;;;;;;12.11;85.92;97941.22;5050397;28;20043;-41
2023/10/06 08:52:56;;;;;;;6.22;3.28;;;;;;;11.89;87.43;97929.63;5067184;28;20098;-41
2023/10/06 08:55:24;;;;;;;8.85;3.92;;;;;;;11.76;89.16;97934.03;5083714;28;20138;-41
2023/10/06 08:57:51;;;;;;;8.57;4.10;;;;;;;11.65;91.88;97931.25;5083585;28;20427;-40
2023/10/06 09:00:18;;;;;;;9.27;4.68;;;;;;;11.52;93.94;97940.81;5068431;28;20032;-40
2023/10/06 09:02:46;;;;;;;10.98;4.45;;;;;;;11.32;97.40;97943.88;5071610;28;20052;-40
2023/10/06 09:05:13;;;;;;;8.65;4.60;;;;;;;11.21;99.54;97934.16;5070818;28;20053;-42
2023/10/06 09:08:00;;;;;;;15.48;5.47;;;;;;;11.17;100.00;97937.91;5072260;28;20036;-40
2023/10/06 09:10:29;;;;;;;9.02;4.68;;;;;;;11.13;100.00;97941.66;5071865;28;20076;-41
2023/10/06 09:13:07;;;;;;;12.45;5.15;;;;;;;10.99;100.00;97926.09;5054232;28;20040;-41
2023/10/06 09:15:36;;;;;;;13.35;5.40;;;;;;;11.04;100.00;97939.66;5070884;28;20064;-41
2023/10/06 09:18:22;;;;;;;8.80;4.18;;;;;;;11.07;100.00;97928.19;5054328;28;20048;-42
2023/10/06 09:20:49;;;;;;;11.88;4.68;;;;;;;11.07;100.00;97926.44;5087366;28;20121;-40
2023/10/06 09:23:36;;;;;;;16.27;6.05;;;;;;;11.27;100.00;97938.16;5071463;28;20500;-42
2023/10/06 09:26:04;;;;;;;17.63;4.53;;;;;;;11.12;100.00;97924.38;5072013;28;20032;-41
2023/10/06 09:28:31;;;;;;;3.87;1.90;;;;;;;10.85;100.00;97920.94;5084347;28;20412;-40
2023/10/06 09:31:00;;;;;;;7.85;2.97;;;;;;;10.83;100.00;97931.44;5069743;28;20044;-40
2023/10/06 09:33:29;;;;;;;4.40;2.17;;;;;;;10.95;100.00;97927.22;5071884;28;20040;-41
2023/10/06 09:36:08;;;;;;;3.13;1.85;;;;;;;10.79;100.00;97900.53;5071577;28;20064;-41
2023/10/06 09:38:35;;;;;;;;;;;;;;;11.15;100.00;97938.97;5070935;28;20036;-41
2023/10/06 09:41:01;;;;;;;3.90;1.70;;;;;;;11.04;100.00;97927.44;5053663;28;19943;-40
2023/10/06 09:43:32;;;;;;;4.20;1.60;;;;;;;11.01;100.00;97927.66;5071168;28;20036;-42
2023/10/06 09:46:16;;;;;;;3.67;1.40;;;;;;;10.97;100.00;97918.41;5071500;28;20143;-41
2023/10/06 09:48:45;;;;;;;4.53;1.55;;;;;;;10.76;100.00;97918.91;5070330;28;20037;-41
2023/10/06 09:51:17;;;;;;;4.28;1.55;;;;;;;10.85;100.00;97916.56;5069982;28;20071;-42
2023/10/06 09:53:47;;;;;;;5.15;1.80;;;;;;;11.04;100.00;97909.25;5071420;28;20051;-42
2023/10/06 09:56:16;;;;;;;4.00;2.17;;;;;;;11.01;100.00;97860.06;5070078;28;20051;-42
2023/10/06 09:58:47;;;;;;;2.90;1.80;;;;;;;11.66;100.00;97903.47;5071269;28;20507;-41
2023/10/06 10:01:14;;;;;;;3.67;1.73;;;;;;;11.97;100.00;97897.06;5071776;28;20089;-43
2023/10/06 10:03:41;;;;;;;5.05;2.38;;;;;;;13.30;100.00;97878.81;5069454;28;20113;-41
2023/10/06 10:06:07;;;;;;;3.40;1.98;;;;;;;15.15;100.00;97901.75;5070890;28;20121;-45
2023/10/06 10:08:35;;;;;;;2.95;1.80;;;;;;;16.84;100.00;97903.13;5071093;28;20079;-41
2023/10/06 10:11:04;;;;;;;2.80;1.38;;;;;;;17.47;100.00;97861.56;5052770;28;20060;-42
2023/10/06 10:13:37;;;;;;;5.10;1.83;;;;;;;17.35;98.49;97898.47;5052943;28;20044;-43
2023/10/06 10:16:25;;;;;;;3.65;1.52;;;;;;;17.36;95.50;97902.78;5069987;28;20051;-44
2023/10/06 10:19:12;;;;;;;4.28;1.73;;;;;;;16.33;91.46;97898.78;5086560;28;20048;-43
2023/10/06 10:21:41;;;;;;;5.22;1.80;;;;;;;16.02;97.08;97891.88;5069656;28;20094;-43
2023/10/06 10:24:14;;;;;;;3.30;2.17;;;;;;;15.58;96.12;97901.72;5053325;28;20119;-42
2023/10/06 10:26:47;;;;;;;6.13;2.25;;;;;;;15.04;96.73;97888.69;5088032;28;20102;-40
2023/10/06 10:29:15;;;;;;;3.92;2.03;;;;;;;14.71;98.11;97899.25;5087455;28;20032;-42
2023/10/06 10:31:52;;;;;;;5.70;2.38;;;;;;;14.69;100.00;97888.91;5070347;28;20068;-41
2023/10/06 10:34:21;;;;;;;5.22;2.10;;;;;;;14.66;100.00;97893.53;5052289;28;20134;-40
2023/10/06 10:37:12;;;;;;;3.97;2.00;;;;;;;14.21;99.97;97892.75;5070491;28;20135;-41
2023/10/06 10:39:52;;;;;;;6.45;2.40;;;;;;;14.22;99.63;97889.19;5070606;28;20645;-41
2023/10/06 10:42:22;;;;;;;4.32;2.35;;;;;;;14.57;100.00;97902.97;5070080;28;20067;-41
2023/10/06 10:45:43;;;;;;;5.15;2.17;;;;;;;14.80;100.00;97906.38;5070581;28;20044;-45
2023/10/06 10:48:15;;;;;;;4.57;1.98;;;;;;;15.05;100.00;97911.31;5067636;28;20423;-48
2023/10/06 10:50:53;;;;;;;4.10;1.67;;;;;;;15.66;98.66;97906.31;5071787;28;20575;-43
2023/10/06 10:53:20;;;;;;;5.72;1.90;;;;;;;15.71;100.00;97900.66;5089011;28;20530;-42
2023/10/06 10:55:50;;;;;;;3.10;1.65;;;;;;;15.51;97.95;97907.53;5073858;28;20032;-41
2023/10/06 10:58:34;;;;;;;;;;;;;;;15.39;98.07;97901.53;5069481;28;20040;-42
2023/10/06 11:01:32;;;;;;;2.70;1.55;;;;;;;15.09;94.30;97901.41;5086464;28;19956;-45
2023/10/06 11:04:31;;;;;;;3.53;1.30;;;;;;;14.99;93.48;97909.19;5068983;28;20040;-43
2023/10/06 11:07:01;;;;;;;3.03;1.30;;;;;;;14.94;90.71;97907.88;5073237;28;20044;-42
2023/10/06 11:09:40;;;;;;;3.42;1.40;;;;;;;14.38;87.33;97895.75;5081498;28;20507;-41
2023/10/06 11:12:25;;;;;;;1.25;1.15;;;;;;;14.23;92.83;97899.53;5080909;28;20094;-42
2023/10/06 11:14:59;;;;;;;3.45;1.08;;;;;;;14.13;96.01;97895.94;5068401;28;20477;-42
2023/10/06 11:17:26;;;;;;;2.70;1.50;;;;;;;13.98;98.61;97897.94;5068652;28;20032;-43
2023/10/06 11:20:13;;;;;;;2.75;1.27;;;;;;;13.88;99.51;97894.38;5081231;28;20043;-42
2023/10/06 11:22:59;;;;;;;3.72;1.85;;;;;;;13.78;99.36;97898.63;5079978;28;20041;-42
2023/10/06 11:25:29;;;;;;;3.33;1.17;;;;;;;13.64;99.91;97916.28;5074370;28;20052;-43
2023/10/06 11:28:04;;;;;;;;;;;;;;;13.50;99.30;97906.91;5076746;28;20420;-41
2023/10/06 11:30:38;;;;;;;4.18;1.70;;;;;;;13.09;100.00;97921.16;5094964;28;20299;-42
2023/10/06 11:33:08;;;;;;;4.93;2.17;;;;;;;12.50;100.00;97904.59;5081778;28;20154;-42
2023/10/06 11:35:36;;;;;;;2.92;1.25;;;;;;;12.01;100.00;97912.34;5070303;28;20070;-41
2023/10/06 11:38:04;;;;;;;3.92;1.23;;;;;;;11.56;100.00;97908.47;5076850;28;20507;-42
2023/10/06 11:40:31;;;;;;;3.67;1.90;;;;;;;11.53;100.00;97918.22;5080733;28;20063;-40
2023/10/06 11:43:18;;;;;;;3.90;2.05;;;;;;;11.48;100.00;97918.53;5071325;28;20070;-41
2023/10/06 11:45:44;;;;;;;4.75;2.13;;;;;;;11.54;100.00;97938.94;5071475;28;20044;-42
2023/10/06 11:48:31;;;;;;;7.68;2.42;;;;;;;11.57;100.00;97946.53;5070849;28;20506;-42
2023/10/06 11:51:12;;;;;;;3.30;1.40;;;;;;;11.29;100.00;97928.47;5079844;28;20404;-44
2023/10/06 11:53:40;;;;;;;2.00;0.90;;;;;;;11.03;100.00;97943.16;5085683;28;20438;-41
2023/10/06 11:56:15;;;;;;;3.17;0.80;;;;;;;10.61;100.00;97905.97;5079255;28;20051;-42
2023/10/06 11:58:41;;;;;;;3.35;0.90;;;;;;;10.72;100.00;97943.44;5072190;28;20040;-42